createdAt,value
2019-04-10T00:00:56.526Z,96264.23
2019-04-10T00:03:32.429Z,96256.56
2019-04-10T00:05:52.150Z,96264.00
2019-04-10T00:08:19.829Z,96256.31
2019-04-10T00:10:47.857Z,96254.42
2019-04-10T00:13:14.268Z,96253.88
2019-04-10T00:15:42.352Z,96259.88
2019-04-10T00:18:09.459Z,96254.83
2019-04-10T00:20:36.653Z,96258.58
2019-04-10T00:23:04.066Z,96258.98
2019-04-10T00:25:31.473Z,96253.70
2019-04-10T00:27:59.088Z,96259.03
2019-04-10T00:30:27.086Z,96260.00
2019-04-10T00:32:54.447Z,96251.91
2019-04-10T00:35:21.447Z,96249.08
2019-04-10T00:37:49.198Z,96247.73
2019-04-10T00:40:15.970Z,96250.24
2019-04-10T00:42:43.372Z,96245.33
2019-04-10T00:45:11.267Z,96243.21
2019-04-10T00:47:39.030Z,96252.48
2019-04-10T00:50:06.438Z,96243.55
2019-04-10T00:52:33.063Z,96246.17
2019-04-10T00:55:01.461Z,96246.06
2019-04-10T00:57:27.986Z,96248.73
2019-04-10T01:00:01.378Z,96248.80
2019-04-10T01:02:29.058Z,96250.04
2019-04-10T01:04:56.175Z,96246.29
2019-04-10T01:07:34.712Z,96240.20
2019-04-10T01:09:50.992Z,96245.89
2019-04-10T01:12:19.324Z,96235.11
2019-04-10T01:14:45.824Z,96243.58
2019-04-10T01:17:13.699Z,96237.45
2019-04-10T01:19:41.802Z,96236.24
2019-04-10T01:22:08.624Z,96234.52
2019-04-10T01:24:35.555Z,96232.62
2019-04-10T01:27:03.439Z,96233.11
2019-04-10T01:29:30.399Z,96225.84
2019-04-10T01:31:57.707Z,96223.13
2019-04-10T01:34:25.424Z,96219.84
2019-04-10T01:36:52.531Z,96223.67
2019-04-10T01:39:22.288Z,96224.22
2019-04-10T01:41:50.158Z,96228.15
2019-04-10T01:44:17.079Z,96227.80
2019-04-10T01:46:44.491Z,96229.83
2019-04-10T01:49:11.889Z,96230.59
2019-04-10T01:51:39.384Z,96229.00
2019-04-10T01:54:06.913Z,96232.28
2019-04-10T01:56:36.374Z,96230.01
2019-04-10T01:59:01.986Z,96224.43
2019-04-10T02:01:29.439Z,96227.59
2019-04-10T02:03:56.823Z,96224.42
2019-04-10T02:06:25.236Z,96227.97
2019-04-10T02:08:51.732Z,96231.86
2019-04-10T02:11:19.180Z,96221.25
2019-04-10T02:13:47.603Z,96220.73
2019-04-10T02:18:47.948Z,96227.92
2019-04-10T02:21:15.741Z,96223.66
2019-04-10T02:23:42.996Z,96218.58
2019-04-10T02:26:11.491Z,96223.98
2019-04-10T02:28:37.828Z,96218.66
2019-04-10T02:31:06.814Z,96219.97
2019-04-10T02:33:33.620Z,96223.06
2019-04-10T02:36:01.363Z,96217.23
2019-04-10T02:38:43.049Z,96216.81
2019-04-10T02:40:55.480Z,96221.05
2019-04-10T02:43:23.277Z,96218.94
2019-04-10T02:45:51.059Z,96226.13
2019-04-10T02:48:17.331Z,96231.13
2019-04-10T02:50:45.047Z,96230.41
2019-04-10T02:53:13.095Z,96227.39
2019-04-10T02:55:40.855Z,96226.81
2019-04-10T02:58:07.976Z,96230.47
2019-04-10T03:00:35.886Z,96229.84
2019-04-10T03:03:03.475Z,96234.55
2019-04-10T03:05:30.299Z,96233.01
2019-04-10T03:07:58.202Z,96233.77
2019-04-10T03:10:33.674Z,96233.73
2019-04-10T03:12:52.577Z,96237.73
2019-04-10T03:15:20.042Z,96229.10
2019-04-10T03:17:46.968Z,96234.81
2019-04-10T03:20:14.362Z,96238.75
2019-04-10T03:22:41.811Z,96239.44
2019-04-10T03:25:09.213Z,96239.96
2019-04-10T03:27:36.604Z,96229.72
2019-04-10T03:30:05.231Z,96234.63
2019-04-10T03:32:37.115Z,96227.70
2019-04-10T03:37:54.392Z,96226.23
2019-04-10T03:40:21.808Z,96236.05
2019-04-10T03:42:49.604Z,96236.51
2019-04-10T03:45:16.654Z,96235.81
2019-04-10T03:47:44.091Z,96232.51
2019-04-10T03:50:11.496Z,96231.45
2019-04-10T03:52:38.912Z,96235.63
2019-04-10T03:55:06.324Z,96232.26
2019-04-10T03:57:34.382Z,96228.59
2019-04-10T04:00:01.518Z,96242.70
2019-04-10T04:02:29.484Z,96242.55
2019-04-10T04:04:56.052Z,96243.19
2019-04-10T04:07:26.022Z,96253.47
2019-04-10T04:09:51.559Z,96248.16
2019-04-10T04:12:18.272Z,96250.67
2019-04-10T04:14:46.385Z,96256.02
2019-04-10T04:17:13.641Z,96245.73
2019-04-10T04:19:40.504Z,96249.58
2019-04-10T04:22:08.280Z,96249.39
2019-04-10T04:24:35.738Z,96249.30
2019-04-10T04:27:02.857Z,96255.58
2019-04-10T04:29:30.371Z,96252.86
2019-04-10T04:31:57.614Z,96257.89
2019-04-10T04:34:25.072Z,96247.54
2019-04-10T04:36:53.512Z,96255.59
2019-04-10T04:39:26.226Z,96259.34
2019-04-10T04:41:47.886Z,96261.86
2019-04-10T04:44:14.769Z,96267.39
2019-04-10T04:46:42.944Z,96271.51
2019-04-10T04:49:09.610Z,96267.20
2019-04-10T04:51:37.068Z,96277.83
2019-04-10T04:54:04.596Z,96269.59
2019-04-10T04:56:32.101Z,96275.75
2019-04-10T04:58:59.515Z,96268.73
2019-04-10T05:01:27.544Z,96278.58
2019-04-10T05:03:54.858Z,96282.22
2019-04-10T05:06:22.253Z,96279.13
2019-04-10T05:08:49.269Z,96287.02
2019-04-10T05:11:16.688Z,96287.23
2019-04-10T05:13:44.096Z,96288.08
2019-04-10T05:16:11.484Z,96291.94
2019-04-10T05:18:39.271Z,96284.99
2019-04-10T05:21:06.333Z,96286.34
2019-04-10T05:23:35.054Z,96283.92
2019-04-10T05:26:02.380Z,96291.19
2019-04-10T05:28:29.947Z,96289.47
2019-04-10T05:30:56.871Z,96289.63
2019-04-10T05:33:24.623Z,96293.55
2019-04-10T05:35:51.117Z,96297.91
2019-04-10T05:38:18.765Z,96295.94
2019-04-10T05:40:45.935Z,96304.64
2019-04-10T05:43:13.514Z,96296.48
2019-04-10T05:45:40.910Z,96297.56
2019-04-10T05:48:08.845Z,96297.25
2019-04-10T05:50:35.771Z,96298.63
2019-04-10T05:53:04.291Z,96298.23
2019-04-10T05:55:30.964Z,96302.60
2019-04-10T05:57:58.124Z,96307.27
2019-04-10T06:00:25.402Z,96309.49
2019-04-10T06:02:52.849Z,96306.64
2019-04-10T06:05:20.358Z,96308.78
2019-04-10T06:07:47.826Z,96314.88
2019-04-10T06:10:15.509Z,96319.66
2019-04-10T06:12:42.810Z,96317.77
2019-04-10T06:15:10.686Z,96326.69
2019-04-10T06:17:38.635Z,96325.12
2019-04-10T06:20:05.196Z,96326.81
2019-04-10T06:22:32.614Z,96321.84
2019-04-10T06:25:00.760Z,96325.09
2019-04-10T06:27:28.313Z,96329.64
2019-04-10T06:29:55.317Z,96324.59
2019-04-10T06:32:22.747Z,96322.77
2019-04-10T06:34:50.245Z,96323.42
2019-04-10T06:37:17.757Z,96323.94
2019-04-10T06:39:46.010Z,96326.11
2019-04-10T06:42:12.479Z,96326.10
2019-04-10T06:44:39.880Z,96321.97
2019-04-10T06:47:07.284Z,96320.49
2019-04-10T06:49:34.692Z,96325.97
2019-04-10T06:52:02.085Z,96321.43
2019-04-10T06:54:29.500Z,96324.84
2019-04-10T06:56:57.066Z,96324.29
2019-04-10T06:59:24.590Z,96327.39
2019-04-10T07:01:55.128Z,96322.56
2019-04-10T07:04:24.210Z,96327.45
2019-04-10T07:06:58.040Z,96329.39
2019-04-10T07:09:15.722Z,96330.66
2019-04-10T07:11:42.896Z,96332.23
2019-04-10T07:14:12.600Z,96337.91
2019-04-10T07:16:37.384Z,96335.73
2019-04-10T07:19:08.555Z,96332.54
2019-04-10T07:21:35.542Z,96332.73
2019-04-10T07:24:04.994Z,96332.55
2019-04-10T07:26:37.796Z,96331.09
2019-04-10T07:28:58.666Z,96339.88
2019-04-10T07:31:23.745Z,96332.47
2019-04-10T07:33:52.236Z,96329.94
2019-04-10T07:36:18.802Z,96334.50
2019-04-10T07:38:46.854Z,96330.53
2019-04-10T07:41:20.062Z,96331.25
2019-04-10T07:43:42.607Z,96330.89
2019-04-10T07:46:10.160Z,96332.95
2019-04-10T07:48:37.924Z,96333.25
2019-04-10T07:51:05.328Z,96335.37
2019-04-10T07:53:33.198Z,96337.09
2019-04-10T07:56:06.362Z,96338.14
2019-04-10T07:58:29.214Z,96336.59
2019-04-10T08:00:56.817Z,96338.48
2019-04-10T08:03:25.162Z,96334.95
2019-04-10T08:05:52.631Z,96333.79
2019-04-10T08:08:19.461Z,96332.41
2019-04-10T08:10:47.228Z,96332.50
2019-04-10T08:13:14.233Z,96331.81
2019-04-10T08:15:41.647Z,96330.38
2019-04-10T08:18:10.050Z,96324.41
2019-04-10T08:20:37.956Z,96330.45
2019-04-10T08:23:04.446Z,96324.20
2019-04-10T08:25:31.914Z,96322.88
2019-04-10T08:28:00.575Z,96324.53
2019-04-10T08:30:27.893Z,96327.76
2019-04-10T08:33:00.718Z,96328.58
2019-04-10T08:35:22.957Z,96332.22
2019-04-10T08:37:49.327Z,96327.72
2019-04-10T08:40:16.742Z,96324.51
2019-04-10T08:42:46.039Z,96325.73
2019-04-10T08:45:11.752Z,96330.57
2019-04-10T08:47:39.684Z,96330.02
2019-04-10T08:50:07.633Z,96323.22
2019-04-10T08:52:34.767Z,96330.00
2019-04-10T08:55:02.318Z,96329.34
2019-04-10T08:57:29.806Z,96324.05
2019-04-10T08:59:58.269Z,96329.19
2019-04-10T09:02:24.730Z,96320.70
2019-04-10T09:04:53.124Z,96329.81
2019-04-10T09:07:19.987Z,96321.41
2019-04-10T09:09:47.963Z,96321.06
2019-04-10T09:12:15.696Z,96320.67
2019-04-10T09:14:43.406Z,96316.25
2019-04-10T09:17:11.106Z,96312.42
2019-04-10T09:19:38.159Z,96306.63
2019-04-10T09:22:05.971Z,96307.06
2019-04-10T09:24:32.647Z,96305.42
2019-04-10T09:27:00.551Z,96308.47
2019-04-10T09:29:27.882Z,96306.41
2019-04-10T09:31:55.751Z,96305.81
2019-04-10T09:34:23.350Z,96308.14
2019-04-10T09:36:49.916Z,96299.70
2019-04-10T09:39:17.302Z,96306.77
2019-04-10T09:41:45.980Z,96306.98
2019-04-10T09:44:12.411Z,96304.77
2019-04-10T09:46:40.817Z,96299.52
2019-04-10T09:49:07.222Z,96299.03
2019-04-10T09:51:34.646Z,96293.75
2019-04-10T09:54:02.112Z,96294.81
2019-04-10T09:56:29.846Z,96299.45
2019-04-10T09:58:56.948Z,96292.77
2019-04-10T10:01:24.364Z,96290.45
2019-04-10T10:03:52.772Z,96292.56
2019-04-10T10:06:27.372Z,96291.98
2019-04-10T10:08:47.966Z,96288.73
2019-04-10T10:11:14.730Z,96284.33
2019-04-10T10:13:42.018Z,96286.31
2019-04-10T10:16:10.581Z,96286.12
2019-04-10T10:18:38.006Z,96279.39
2019-04-10T10:21:05.419Z,96280.59
2019-04-10T10:23:33.964Z,96279.09
2019-04-10T10:26:01.724Z,96281.15
2019-04-10T10:28:29.224Z,96275.25
2019-04-10T10:30:56.235Z,96279.70
2019-04-10T10:33:23.778Z,96270.93
2019-04-10T10:35:51.559Z,96271.22
2019-04-10T10:38:19.046Z,96273.70
2019-04-10T10:40:46.076Z,96275.59
2019-04-10T10:43:13.505Z,96275.02
2019-04-10T10:45:40.915Z,96266.39
2019-04-10T10:48:09.068Z,96276.76
2019-04-10T10:50:35.767Z,96266.39
2019-04-10T10:53:04.029Z,96267.55
2019-04-10T10:55:31.759Z,96267.44
2019-04-10T10:57:58.151Z,96274.16
2019-04-10T11:00:25.612Z,96259.31
2019-04-10T11:02:53.930Z,96263.89
2019-04-10T11:05:21.133Z,96264.52
2019-04-10T11:07:48.912Z,96261.96
2019-04-10T11:10:19.652Z,96260.39
2019-04-10T11:12:42.858Z,96257.95
2019-04-10T11:15:10.405Z,96252.56
2019-04-10T11:17:38.449Z,96254.55
2019-04-10T11:20:08.025Z,96255.27
2019-04-10T11:22:33.962Z,96251.03
2019-04-10T11:25:01.552Z,96256.05
2019-04-10T11:27:28.114Z,96257.38
2019-04-10T11:29:55.075Z,96244.92
2019-04-10T11:32:22.172Z,96243.68
2019-04-10T11:34:49.364Z,96232.98
2019-04-10T11:37:24.221Z,96238.11
2019-04-10T11:39:45.427Z,96232.20
2019-04-10T11:42:12.149Z,96223.34
2019-04-10T11:44:39.606Z,96225.17
2019-04-10T11:47:09.534Z,96229.05
2019-04-10T11:49:36.150Z,96227.16
2019-04-10T11:52:03.375Z,96219.52
2019-04-10T11:54:31.953Z,96218.64
2019-04-10T11:56:58.709Z,96215.14
2019-04-10T11:59:24.339Z,96216.59
2019-04-10T12:01:56.956Z,96216.01
2019-04-10T12:04:20.159Z,96211.50
2019-04-10T12:06:50.262Z,96210.52
2019-04-10T12:10:00.118Z,96213.11
2019-04-10T12:11:44.717Z,96213.76
2019-04-10T12:14:11.549Z,96209.12
2019-04-10T12:16:39.039Z,96205.77
2019-04-10T12:19:06.891Z,96210.12
2019-04-10T12:21:33.795Z,96215.77
2019-04-10T12:24:01.227Z,96199.27
2019-04-10T12:26:28.687Z,96208.80
2019-04-10T12:28:56.185Z,96210.44
2019-04-10T12:31:23.873Z,96201.91
2019-04-10T12:33:51.007Z,96206.05
2019-04-10T12:36:18.410Z,96205.75
2019-04-10T12:38:45.848Z,96204.05
2019-04-10T12:41:13.275Z,96203.45
2019-04-10T12:43:41.115Z,96198.63
2019-04-10T12:46:08.651Z,96201.28
2019-04-10T12:48:36.804Z,96200.25
2019-04-10T12:51:03.483Z,96197.77
2019-04-10T12:53:31.657Z,96195.66
2019-04-10T12:55:58.020Z,96189.10
2019-04-10T12:58:25.435Z,96193.43
2019-04-10T13:00:52.946Z,96184.36
2019-04-10T13:03:20.255Z,96188.61
2019-04-10T13:05:47.658Z,96187.54
2019-04-10T13:08:21.804Z,96191.60
2019-04-10T13:10:43.475Z,96191.94
2019-04-10T13:13:11.483Z,96180.14
2019-04-10T13:15:37.845Z,96178.59
2019-04-10T13:18:05.913Z,96172.53
2019-04-10T13:20:33.660Z,96170.34
2019-04-10T13:23:00.330Z,96166.20
2019-04-10T13:25:27.343Z,96169.70
2019-04-10T13:27:54.878Z,96172.39
2019-04-10T13:30:21.291Z,96168.69
2019-04-10T13:32:48.218Z,96165.89
2019-04-10T13:35:15.797Z,96162.13
2019-04-10T13:37:42.137Z,96164.59
2019-04-10T13:40:09.542Z,96165.13
2019-04-10T13:42:37.281Z,96171.35
2019-04-10T13:45:06.892Z,96170.34
2019-04-10T13:47:34.391Z,96167.31
2019-04-10T13:50:00.880Z,96160.48
2019-04-10T13:52:28.278Z,96157.15
2019-04-10T13:54:55.799Z,96158.10
2019-04-10T13:57:23.101Z,96162.33
2019-04-10T13:59:50.100Z,96165.41
2019-04-10T14:02:17.979Z,96163.70
2019-04-10T14:04:45.378Z,96167.27
2019-04-10T14:07:12.807Z,96167.59
2019-04-10T14:09:46.120Z,96173.59
2019-04-10T14:12:08.345Z,96163.47
2019-04-10T14:14:36.969Z,96171.82
2019-04-10T14:17:05.526Z,96170.95
2019-04-10T14:19:31.796Z,96177.77
2019-04-10T14:21:58.172Z,96183.66
2019-04-10T14:24:26.317Z,96184.86
2019-04-10T14:29:46.932Z,96189.61
2019-04-10T14:32:13.495Z,96199.38
2019-04-10T14:34:40.919Z,96188.95
2019-04-10T14:37:09.273Z,96187.55
2019-04-10T14:39:35.977Z,96191.62
2019-04-10T14:42:04.335Z,96192.13
2019-04-10T14:44:30.889Z,96196.77
2019-04-10T14:46:58.346Z,96188.70
2019-04-10T14:49:29.668Z,96196.51
2019-04-10T14:51:57.142Z,96195.27
2019-04-10T14:54:24.558Z,96195.27
2019-04-10T14:56:52.589Z,96202.30
2019-04-10T14:59:19.834Z,96200.16
2019-04-10T15:01:53.186Z,96196.16
2019-04-10T15:04:22.386Z,96200.38
2019-04-10T15:06:50.053Z,96196.27
2019-04-10T15:09:23.230Z,96198.77
2019-04-10T15:11:45.029Z,96200.70
2019-04-10T15:14:13.152Z,96196.69
2019-04-10T15:16:40.931Z,96194.60
2019-04-10T15:19:07.992Z,96206.86
2019-04-10T15:21:35.290Z,96199.28
2019-04-10T15:24:03.545Z,96205.81
2019-04-10T15:26:30.207Z,96202.95
2019-04-10T15:28:58.272Z,96206.98
2019-04-10T15:31:27.460Z,96210.63
2019-04-10T15:33:52.468Z,96213.78
2019-04-10T15:36:20.033Z,96208.27
2019-04-10T15:38:48.348Z,96208.33
2019-04-10T15:41:14.752Z,96207.67
2019-04-10T15:43:43.434Z,96205.02
2019-04-10T15:46:10.763Z,96200.59
2019-04-10T15:48:37.694Z,96200.03
2019-04-10T15:51:05.604Z,96204.11
2019-04-10T15:53:32.250Z,96200.35
2019-04-10T15:55:59.606Z,96202.91
2019-04-10T15:58:27.779Z,96207.70
2019-04-10T16:00:54.455Z,96211.38
2019-04-10T16:03:21.886Z,96213.78
2019-04-10T16:05:50.175Z,96217.76
2019-04-10T16:08:16.770Z,96215.84
2019-04-10T16:10:46.352Z,96220.91
2019-04-10T16:13:14.545Z,96227.67
2019-04-10T16:15:42.834Z,96225.70
2019-04-10T16:18:11.860Z,96226.91
2019-04-10T16:20:39.306Z,96228.50
2019-04-10T16:23:07.966Z,96224.09
2019-04-10T16:25:34.329Z,96222.23
2019-04-10T16:28:02.092Z,96216.48
2019-04-10T16:30:29.146Z,96219.98
2019-04-10T16:32:56.575Z,96220.03
2019-04-10T16:35:23.972Z,96215.59
2019-04-10T16:37:51.598Z,96214.47
2019-04-10T16:40:18.807Z,96214.55
2019-04-10T16:42:46.764Z,96211.59
2019-04-10T16:45:13.711Z,96212.48
2019-04-10T16:47:41.994Z,96207.02
2019-04-10T16:50:09.171Z,96210.50
2019-04-10T16:52:36.846Z,96211.18
2019-04-10T16:55:03.617Z,96210.84
2019-04-10T16:57:31.044Z,96215.40
2019-04-10T16:59:59.213Z,96218.42
2019-04-10T17:02:26.355Z,96221.50
2019-04-10T17:04:54.189Z,96217.86
2019-04-10T17:07:21.104Z,96218.69
2019-04-10T17:09:49.920Z,96223.52
2019-04-10T17:12:15.848Z,96215.99
2019-04-10T17:14:43.922Z,96222.28
2019-04-10T17:17:10.728Z,96230.03
2019-04-10T17:19:48.049Z,96229.86
2019-04-10T17:22:06.765Z,96225.11
2019-04-10T17:24:33.492Z,96231.17
2019-04-10T17:27:01.511Z,96235.55
2019-04-10T17:29:29.206Z,96237.00
2019-04-10T17:31:57.100Z,96240.84
2019-04-10T17:34:24.865Z,96238.45
2019-04-10T17:36:51.500Z,96238.69
2019-04-10T17:39:19.612Z,96239.50
2019-04-10T17:41:45.981Z,96238.63
2019-04-10T17:44:13.767Z,96242.33
2019-04-10T17:46:41.628Z,96243.09
2019-04-10T17:49:09.135Z,96235.52
2019-04-10T17:51:36.349Z,96249.92
2019-04-10T17:54:04.185Z,96247.25
2019-04-10T17:56:30.904Z,96246.02
2019-04-10T17:58:58.334Z,96256.98
2019-04-10T18:01:27.047Z,96258.17
2019-04-10T18:03:57.214Z,96261.94
2019-04-10T18:06:21.423Z,96267.25
2019-04-10T18:08:49.280Z,96266.87
2019-04-10T18:11:16.222Z,96277.05
2019-04-10T18:13:43.054Z,96279.33
2019-04-10T18:16:10.682Z,96285.39
2019-04-10T18:18:38.046Z,96294.16
2019-04-10T18:21:06.583Z,96293.36
2019-04-10T18:23:33.603Z,96305.92
2019-04-10T18:26:00.507Z,96315.50
2019-04-10T18:28:30.958Z,96311.41
2019-04-10T18:30:56.488Z,96317.57
2019-04-10T18:33:23.043Z,96318.84
2019-04-10T18:35:51.171Z,96325.02
2019-04-10T18:38:17.942Z,96325.34
2019-04-10T18:40:53.126Z,96327.70
2019-04-10T18:43:12.968Z,96329.70
2019-04-10T18:45:42.120Z,96338.09
2019-04-10T18:48:08.312Z,96344.67
2019-04-10T18:50:36.177Z,96342.97
2019-04-10T18:53:03.614Z,96347.77
2019-04-10T18:55:30.160Z,96348.97
2019-04-10T18:57:57.459Z,96355.13
2019-04-10T19:00:30.481Z,96356.45
2019-04-10T19:03:01.449Z,96366.45
2019-04-10T19:05:29.944Z,96370.04
2019-04-10T19:07:56.701Z,96369.30
2019-04-10T19:10:23.798Z,96372.25
2019-04-10T19:12:51.200Z,96381.72
2019-04-10T19:15:18.651Z,96381.75
2019-04-10T19:17:46.846Z,96383.59
2019-04-10T19:20:13.616Z,96384.08
2019-04-10T19:22:42.326Z,96387.50
2019-04-10T19:25:08.484Z,96389.41
2019-04-10T19:27:36.098Z,96402.59
2019-04-10T19:30:04.712Z,96413.71
2019-04-10T19:32:33.278Z,96401.37
2019-04-10T19:34:59.825Z,96414.89
2019-04-10T19:37:28.200Z,96413.00
2019-04-10T19:39:54.652Z,96424.05
2019-04-10T19:42:22.117Z,96414.41
2019-04-10T19:44:49.540Z,96413.84
2019-04-10T19:47:17.943Z,96415.06
2019-04-10T19:49:44.600Z,96421.19
2019-04-10T19:52:12.009Z,96417.09
2019-04-10T19:54:39.363Z,96412.15
2019-04-10T19:57:06.959Z,96409.25
2019-04-10T19:59:35.621Z,96409.91
2019-04-10T20:02:02.431Z,96416.04
2019-04-10T20:04:29.394Z,96415.38
2019-04-10T20:06:56.675Z,96410.50
2019-04-10T20:09:24.311Z,96423.43
2019-04-10T20:11:54.463Z,96421.97
2019-04-10T20:14:19.966Z,96421.98
2019-04-10T20:16:47.144Z,96421.30
2019-04-10T20:19:15.156Z,96423.30
2019-04-10T20:21:41.881Z,96424.11
2019-04-10T20:24:10.420Z,96427.98
2019-04-10T20:26:37.559Z,96423.58
2019-04-10T20:29:04.976Z,96426.13
2019-04-10T20:31:33.154Z,96433.61
2019-04-10T20:33:59.958Z,96436.36
2019-04-10T20:36:27.397Z,96440.99
2019-04-10T20:38:54.785Z,96440.81
2019-04-10T20:41:22.466Z,96446.33
2019-04-10T20:43:49.637Z,96449.70
2019-04-10T20:46:18.042Z,96445.89
2019-04-10T20:48:44.652Z,96449.39
2019-04-10T20:51:12.372Z,96448.28
2019-04-10T20:53:40.235Z,96454.05
2019-04-10T20:56:06.886Z,96453.92
2019-04-10T20:58:34.339Z,96459.44
2019-04-10T21:01:01.902Z,96450.38
2019-04-10T21:03:29.383Z,96454.21
2019-04-10T21:05:56.841Z,96460.74
2019-04-10T21:08:24.239Z,96450.47
2019-04-10T21:10:51.645Z,96456.07
2019-04-10T21:13:19.132Z,96460.86
2019-04-10T21:15:46.534Z,96464.02
2019-04-10T21:18:15.349Z,96469.59
2019-04-10T21:20:43.211Z,96470.58
2019-04-10T21:23:09.604Z,96467.39
2019-04-10T21:25:37.284Z,96475.17
2019-04-10T21:28:04.793Z,96472.25
2019-04-10T21:30:37.089Z,96470.52
2019-04-10T21:33:04.338Z,96473.37
2019-04-10T21:35:32.740Z,96469.99
2019-04-10T21:37:59.636Z,96461.88
2019-04-10T21:40:27.206Z,96468.67
2019-04-10T21:42:56.098Z,96462.59
2019-04-10T21:45:22.967Z,96459.45
2019-04-10T21:47:50.408Z,96466.23
2019-04-10T21:50:18.568Z,96464.64
2019-04-10T21:52:47.509Z,96465.86
2019-04-10T21:55:14.943Z,96462.22
2019-04-10T21:57:42.460Z,96468.84
2019-04-10T22:00:08.695Z,96463.71
2019-04-10T22:02:36.140Z,96461.20
2019-04-10T22:05:03.803Z,96462.65
2019-04-10T22:07:32.280Z,96465.05
2019-04-10T22:12:52.708Z,96463.33
2019-04-10T22:15:20.391Z,96464.64
2019-04-10T22:17:48.044Z,96464.28
2019-04-10T22:20:15.205Z,96466.75
2019-04-10T22:22:42.938Z,96469.07
2019-04-10T22:25:11.037Z,96466.59
2019-04-10T22:27:37.386Z,96469.27
2019-04-10T22:30:05.523Z,96482.15
2019-04-10T22:32:33.134Z,96481.28
2019-04-10T22:35:01.085Z,96480.50
2019-04-10T22:37:27.962Z,96479.67
2019-04-10T22:39:56.572Z,96485.58
2019-04-10T22:42:35.828Z,96477.52
2019-04-10T22:44:50.193Z,96474.00
2019-04-10T22:47:17.605Z,96480.19
2019-04-10T22:49:45.145Z,96481.16
2019-04-10T22:52:12.463Z,96476.78
2019-04-10T22:54:39.905Z,96477.16
2019-04-10T22:57:07.464Z,96478.58
2019-04-10T22:59:35.011Z,96478.52
2019-04-10T23:02:11.039Z,96478.52
2019-04-10T23:04:30.614Z,96474.55
2019-04-10T23:06:57.682Z,96474.89
2019-04-10T23:09:24.863Z,96479.66
2019-04-10T23:11:52.244Z,96480.50
2019-04-10T23:14:20.684Z,96478.30
2019-04-10T23:16:47.101Z,96487.89
2019-04-10T23:19:14.505Z,96481.44
2019-04-10T23:21:42.906Z,96490.70
2019-04-10T23:24:09.555Z,96489.33
2019-04-10T23:26:37.513Z,96494.14
2019-04-10T23:29:04.263Z,96493.61
2019-04-10T23:31:31.899Z,96496.19
2019-04-10T23:33:59.035Z,96497.26
2019-04-10T23:36:26.535Z,96497.33
2019-04-10T23:38:53.903Z,96501.67
2019-04-10T23:41:21.335Z,96495.45
2019-04-10T23:43:48.748Z,96509.11
2019-04-10T23:46:17.976Z,96505.01
2019-04-10T23:48:44.704Z,96510.10
2019-04-10T23:51:12.662Z,96507.77
2019-04-10T23:53:39.147Z,96508.53
2019-04-10T23:56:06.562Z,96510.08
2019-04-10T23:58:34.042Z,96507.04
